createdAt,value
2022-12-27T00:05:11.752Z,0.0
2022-12-27T00:11:33.386Z,0.0
2022-12-27T00:17:52.908Z,0.0
2022-12-27T00:26:45.099Z,0.0
2022-12-27T00:35:04.575Z,0.0
2022-12-27T00:41:24.143Z,0.0
2022-12-27T00:47:43.097Z,0.0
2022-12-27T00:54:02.355Z,0.0
2022-12-27T01:00:23.313Z,0.0
2022-12-27T01:06:41.819Z,0.0
2022-12-27T01:13:02.338Z,0.0
2022-12-27T01:19:21.917Z,0.0
2022-12-27T01:25:40.696Z,0.0
2022-12-27T01:32:04.012Z,0.0
2022-12-27T01:38:22.679Z,0.0
2022-12-27T01:44:41.628Z,0.0
2022-12-27T01:51:01.322Z,0.0
2022-12-27T01:57:21.015Z,0.0
2022-12-27T02:03:40.487Z,0.0
2022-12-27T02:09:59.862Z,0.0
2022-12-27T02:22:33.997Z,0.0
2022-12-27T02:32:38.441Z,0.0
2022-12-27T02:38:57.360Z,0.0
2022-12-27T02:45:58.765Z,0.0
2022-12-27T02:52:20.391Z,0.0
2022-12-27T03:03:57.894Z,0.0
2022-12-27T03:10:17.426Z,0.0
2022-12-27T03:20:55.412Z,0.0
2022-12-27T03:29:11.965Z,0.0
2022-12-27T03:35:31.908Z,0.0
2022-12-27T03:41:51.420Z,0.0
2022-12-27T03:53:50.602Z,0.0
2022-12-27T04:00:10.951Z,0.0
2022-12-27T04:06:29.877Z,0.0
2022-12-27T04:19:08.489Z,0.0
2022-12-27T04:40:39.643Z,0.0
2022-12-27T04:47:00.392Z,0.0
2022-12-27T04:53:19.860Z,0.0
2022-12-27T04:59:39.373Z,0.0
2022-12-27T05:06:57.622Z,0.0
2022-12-27T05:18:59.368Z,0.0
2022-12-27T05:26:45.952Z,0.0
2022-12-27T05:33:05.745Z,0.0
2022-12-27T05:47:24.360Z,0.0
2022-12-27T05:53:43.438Z,0.0
2022-12-27T06:00:03.180Z,0.0
2022-12-27T06:06:23.668Z,0.0
2022-12-27T06:21:15.007Z,0.0
2022-12-27T06:32:42.168Z,0.0
2022-12-27T06:40:09.255Z,0.0
2022-12-27T06:46:35.971Z,0.0
2022-12-27T06:52:57.000Z,0.0
2022-12-27T06:59:18.961Z,0.0
2022-12-27T07:05:42.548Z,0.0
2022-12-27T07:12:04.816Z,0.0
2022-12-27T07:18:25.556Z,0.0
2022-12-27T07:24:46.537Z,0.0
2022-12-27T07:31:08.504Z,0.0
2022-12-27T07:37:30.208Z,0.0
2022-12-27T07:43:51.930Z,0.0
2022-12-27T07:50:14.737Z,0.0
2022-12-27T07:56:39.296Z,2.7252842809364566
2022-12-27T08:03:16.898Z,3.9490969899665536
2022-12-27T08:11:05.674Z,5.825518394648832
2022-12-27T08:21:02.388Z,7.754046822742469
2022-12-27T08:28:52.914Z,9.436655518394653
2022-12-27T08:36:11.456Z,10.569632107023413
2022-12-27T08:43:38.388Z,12.471672240802667
2022-12-27T08:51:00.590Z,14.372274247491633
2022-12-27T08:58:10.551Z,25.52759197324414
2022-12-27T09:05:28.370Z,18.94612040133779
2022-12-27T09:13:40.255Z,19.122541806020084
2022-12-27T09:21:03.313Z,22.86702341137123
2022-12-27T09:32:13.646Z,20.006086956521756
2022-12-27T09:49:12.201Z,36.84822742474912
2022-12-27T09:58:25.306Z,21.764180602006682
2022-12-27T10:09:24.717Z,28.2500668896321
2022-12-27T10:17:11.309Z,30.83525083612042
2022-12-27T10:24:47.068Z,41.313177257525055
2022-12-27T10:32:22.452Z,34.716856187290965
2022-12-27T10:39:08.218Z,34.5164882943144
2022-12-27T10:45:52.999Z,38.08946488294318
2022-12-27T10:52:45.766Z,30.281705685618746
2022-12-27T10:59:41.343Z,26.789397993311034
2022-12-27T11:06:29.776Z,37.16812709030102
2022-12-27T11:13:11.347Z,40.07789297658863
2022-12-27T11:19:51.266Z,30.842675585284297
2022-12-27T11:26:18.658Z,48.26759197324413
2022-12-27T11:32:45.658Z,37.8608695652174
2022-12-27T11:39:15.544Z,38.44916387959865
2022-12-27T11:45:41.789Z,33.777658862876244
2022-12-27T11:52:06.125Z,33.68551839464884
2022-12-27T12:03:43.717Z,33.22133779264212
2022-12-27T12:13:11.337Z,36.494816053511705
2022-12-27T12:19:38.974Z,39.32277591973246
2022-12-27T12:26:03.634Z,32.932006688963206
2022-12-27T12:32:29.845Z,22.427658862876257
2022-12-27T12:38:53.374Z,22.436387959866227
2022-12-27T12:50:46.296Z,39.93026755852843
2022-12-27T12:57:10.080Z,38.699832775919745
2022-12-27T13:03:35.159Z,36.55424749163882
2022-12-27T13:11:00.255Z,34.61120401337794
2022-12-27T13:17:23.314Z,34.870903010033466
2022-12-27T13:23:46.512Z,32.26494983277592
2022-12-27T13:30:08.927Z,32.317224080267565
2022-12-27T13:36:34.017Z,31.626521739130435
2022-12-27T13:42:56.343Z,29.486755852842826
2022-12-27T13:49:20.087Z,26.8223076923077
2022-12-27T14:01:36.732Z,16.65377926421404
2022-12-27T14:08:04.961Z,16.99538461538461
2022-12-27T14:14:27.512Z,13.05642140468227
2022-12-27T14:20:55.039Z,11.43785953177257
2022-12-27T14:27:52.356Z,8.586421404682277
2022-12-27T14:34:14.891Z,6.065183946488296
2022-12-27T14:41:07.472Z,3.4594648829431427
2022-12-27T14:47:30.551Z,2.6152842809364536
2022-12-27T14:56:07.599Z,1.4129765886287622
2022-12-27T15:02:29.962Z,0.12160535117056859
2022-12-27T15:08:49.584Z,0.0
2022-12-27T15:15:09.627Z,0.0
2022-12-27T15:21:48.377Z,0.0
2022-12-27T15:28:07.816Z,0.0
2022-12-27T15:34:27.177Z,0.0
2022-12-27T15:45:44.054Z,0.0
2022-12-27T15:56:44.972Z,0.0
2022-12-27T16:04:13.639Z,0.0
2022-12-27T16:10:36.730Z,0.0
2022-12-27T16:17:02.271Z,0.0
2022-12-27T16:23:21.969Z,0.0
2022-12-27T16:29:41.659Z,0.0
2022-12-27T16:37:41.513Z,0.0
2022-12-27T16:44:03.888Z,0.0
2022-12-27T16:50:24.128Z,0.0
2022-12-27T17:02:04.634Z,0.0
2022-12-27T17:08:25.515Z,0.0
2022-12-27T17:21:08.051Z,0.0
2022-12-27T17:27:29.271Z,0.0
2022-12-27T17:33:50.027Z,0.0
2022-12-27T17:40:10.956Z,0.0
2022-12-27T17:46:37.364Z,0.0
2022-12-27T17:54:16.142Z,0.0
2022-12-27T18:08:04.177Z,0.0
2022-12-27T18:14:26.432Z,0.0
2022-12-27T18:27:11.893Z,0.0
2022-12-27T18:33:34.842Z,0.0
2022-12-27T18:39:56.380Z,0.0
2022-12-27T18:46:17.990Z,0.0
2022-12-27T18:52:38.397Z,0.0
2022-12-27T18:59:03.141Z,0.0
2022-12-27T19:08:57.488Z,0.0
2022-12-27T19:15:23.859Z,0.0
2022-12-27T19:21:49.060Z,0.0
2022-12-27T19:28:13.153Z,0.0
2022-12-27T19:34:37.044Z,0.0
2022-12-27T19:44:01.673Z,0.0
2022-12-27T19:52:52.783Z,0.0
2022-12-27T20:00:17.584Z,0.0
2022-12-27T20:06:44.658Z,0.0
2022-12-27T20:23:54.203Z,0.0
2022-12-27T20:30:29.894Z,0.0
2022-12-27T20:40:15.572Z,0.0
2022-12-27T20:46:36.346Z,0.0
2022-12-27T20:52:55.802Z,0.0
2022-12-27T20:59:16.981Z,0.0
2022-12-27T21:05:41.936Z,0.0
2022-12-27T21:12:17.384Z,0.0
2022-12-27T21:18:44.829Z,0.0
2022-12-27T21:25:23.643Z,0.0
2022-12-27T21:31:52.018Z,0.0
2022-12-27T21:38:12.453Z,0.0
2022-12-27T21:44:43.532Z,0.0
2022-12-27T21:51:04.047Z,0.0
2022-12-27T21:57:25.675Z,0.0
2022-12-27T22:09:17.508Z,0.0
2022-12-27T22:15:43.829Z,0.0
2022-12-27T22:22:11.026Z,0.0
2022-12-27T22:28:30.680Z,0.0
2022-12-27T22:36:43.355Z,0.0
2022-12-27T22:43:02.921Z,0.0
2022-12-27T22:55:05.069Z,0.0
2022-12-27T23:01:27.971Z,0.0
2022-12-27T23:08:03.488Z,0.0
2022-12-27T23:21:34.071Z,0.0
2022-12-27T23:27:53.773Z,0.0
2022-12-27T23:34:13.199Z,0.0
2022-12-27T23:40:32.413Z,0.0
2022-12-27T23:46:52.258Z,0.0
2022-12-27T23:54:53.037Z,0.0
